Carp Lake, MI (49718)

8:23 AM EDT on August 31, 2015 (GMT -0400)
North Levering MI | | Change Station
CLOSE
Current Station
Personal Weather Station
Location: Levering, MI
Elevation: 741 ft
Nearby Weather Stations

Elev 741 ft 45.67 °N, 84.79 °W | Updated 20 seconds ago

Overcast
Overcast
66.4 °F
Feels Like 66.4 °F
N
1.8
Wind Variable Wind from SW
Gusts 6.3 mph

Today
High -- | Low -- °F
--% Chance of Precip.
Yesterday
High -- | Low -- °F
Precip. -- in
6:58 AM 8:19 PM
Waning Gibbous, 95% visible
Pressure 30.01 in
Visibility 8.0 miles
Clouds Overcast 700 ft
Dew Point 63 °F
Humidity 90%
Rainfall 0.00 in
Snow Depth Not available.
UV 0 out of 12
Pollen 10.50 out of 12
Air Quality Not available.
Flu Activity Not available.
METAR KPLN 311154Z AUTO 25005KT 8SM OVC007 19/18 A3001 RMK AO2 SLP160 T01940178 10194 20178 53010
Pressure 30.01 in
Visibility 8.0 miles
Clouds Overcast 700 ft
Dew Point 63 °F
Humidity 90%
Rainfall 0.00 in
Snow Depth Not available.
UV 0 out of 12
Pollen 10.50 out of 12
Air Quality Not available.
Flu Activity Not available.
METAR KPLN 311154Z AUTO 25005KT 8SM OVC007 19/18 A3001 RMK AO2 SLP160 T01940178 10194 20178 53010
Nowcast | as of 8:00 am EDT on August 31, 2015

At 9 am...partly cloudy. Patchy fog. Temperature 66. Southwest winds 8 mph. At 11 am...partly cloudy. Temperature 69. Southwest winds 8 mph. At 1 PM...mostly clear. Temperature 76. Southwest winds 9 mph. At 3 PM...mostly clear. Temperature 79. West winds 9 mph.

×

10-Day Weather Forecast

×

Almanac

Astronomy

Aug. 31, 2015 Rise Set
Actual Time
Civil Twilight
Nautical Twilight
Astronomical Twilight
Moon
Length of Visible Light
Length of Day
Tomorrow will be .
, % of the Moon is Illuminated

Today's Extremes

State Highs State Lows

Community

WunderPhotos

Upload Photos

1,851,222 photos uploaded!

WunderBlogs® & News

Nearby

Air Quality

  Air Quality AQ Index Pollutant
Not available.

Snow Depth

Station Depth Elevation

Earthquake Activity

City Distance Mag. Time & Date
Minimum magnitude displayed is 2.5.

Coastal Water Temperatures

Place Temperature

Stations

Nearby Weather Stations

Station Location Temp. Windchill Dew Point Humidity Wind Precip. Elev Updated Type